Volcan De Tauce — EAGW — position and weather

sailwx.info

Track history (hours):
 
Tides and Currents Weather Stations Pressure Air Temp Water Temp Dewpoint Dewpoint Depression Visibility Wind Speed Wind Dir Waves Ship Positions

Volcan De Tauce

Last reported at 2016-Apr-28 21:31 UTC. Time now 2016-Apr-28 21:51 UTC.
Position N 28°08' W 015°25'.

Length 120 m; draft 4.7 m.

Type: Passenger vessel. MMSI: 224761000.

Date/timePositionNaut miles runAvg speedWind from/ knotsBaromVisibWave heightAir tempDewpointWater temp
2016-Apr-28 21:31N 28°08' W 015°25'0 0.0
2016-Apr-28 20:31N 28°08' W 015°25'0 0.0
2016-Apr-28 19:31N 28°08' W 015°25'0 0.0
2016-Apr-28 18:31N 28°08' W 015°25'0 0.0
2016-Apr-28 17:31N 28°08' W 015°25'0 0.0
2016-Apr-28 16:33N 28°08' W 015°25'1313.4
2016-Apr-28 15:33N 28°06' W 015°10'1616.0
2016-Apr-28 14:33N 28°04' W 014°52'5914.8
2016-Apr-28 10:33N 28°25' W 013°49'5 2.4
2016-Apr-28 08:16N 28°30' W 013°51'46 7.4
2016-Apr-28 02:03N 28°02' W 014°33'1415.1
2016-Apr-28 01:06N 28°03' W 014°49'5 0.5
2016-Apr-27 14:08N 28°03' W 014°43'915.7
2016-Apr-27 13:34N 28°02' W 014°33'1615.8
2016-Apr-27 12:33N 28°03' W 014°15'1816.5
2016-Apr-27 11:29N 28°12' W 013°58'1715.4
2016-Apr-27 10:25N 28°27' W 013°50'3 0.8
2016-Apr-27 06:07N 28°30' W 013°51'1 1.1
2016-Apr-27 05:28N 28°29' W 013°51'2613.4
2016-Apr-27 03:33N 28°07' W 014°06'2914.5
2016-Apr-27 01:33N 28°02' W 014°39'1515.3
2016-Apr-27 00:33N 28°04' W 014°56'1515.3
2016-Apr-26 23:33N 28°06' W 015°13'1010.5
2016-Apr-26 22:33N 28°08' W 015°25'0 0.0
2016-Apr-26 21:33N 28°08' W 015°25'0 0.0
2016-Apr-26 20:33N 28°08' W 015°25'0 0.0
2016-Apr-26 19:33N 28°08' W 015°25'0 0.0
2016-Apr-26 18:33N 28°08' W 015°25'0 0.0
2016-Apr-26 17:30N 28°08' W 015°25'0 0.2
2016-Apr-26 16:33N 28°08' W 015°25'1413.8
2016-Apr-26 15:33N 28°06' W 015°09'1616.3
2016-Apr-26 14:33N 28°04' W 014°51'1615.9
2016-Apr-26 13:33N 28°02' W 014°33'1716.1
2016-Apr-26 12:30N 28°04' W 014°14'3215.3
2016-Apr-26 10:27N 28°27' W 013°50'17 2.8
2016-Apr-26 04:10N 28°11' W 013°58'1015.6
2016-Apr-26 03:33N 28°07' W 014°08'2914.4
2016-Apr-26 01:32N 28°03' W 014°40'1515.1
2016-Apr-26 00:33N 28°04' W 014°57'1515.1
2016-Apr-25 23:33N 28°06' W 015°14'10 9.9
2016-Apr-25 22:33N 28°08' W 015°25'0 0.0
2016-Apr-25 21:25N 28°08' W 015°25'0 0.0
2016-Apr-25 20:25N 28°08' W 015°25'0 0.0
2016-Apr-25 19:25N 28°08' W 015°25'0 0.0
2016-Apr-25 18:25N 28°08' W 015°25'0 0.0
2016-Apr-25 17:28N 28°08' W 015°25'0 0.0
2016-Apr-25 16:33N 28°08' W 015°25'0 0.0
2016-Apr-25 15:33N 28°08' W 015°25'0 0.0
2016-Apr-25 14:34N 28°08' W 015°25'0 0.0
2016-Apr-25 13:33N 28°08' W 015°25'0 0.0
2016-Apr-25 12:34N 28°08' W 015°25'0 0.0
2016-Apr-25 11:34N 28°08' W 015°25'0 0.0
2016-Apr-25 10:33N 28°08' W 015°25'0 0.0
2016-Apr-25 09:33N 28°08' W 015°25'0 0.0
2016-Apr-25 08:33N 28°08' W 015°25'0 0.0
2016-Apr-25 07:33N 28°08' W 015°25'0 0.0
2016-Apr-25 06:34N 28°08' W 015°25'0 0.0
2016-Apr-25 05:34N 28°08' W 015°25'0 0.0
2016-Apr-25 04:33N 28°08' W 015°25'0 0.0
2016-Apr-25 03:33N 28°08' W 015°25'0 0.0
2016-Apr-25 02:33N 28°08' W 015°25'0 0.0
2016-Apr-25 01:33N 28°08' W 015°25'0 0.0
2016-Apr-25 00:33N 28°08' W 015°25'0 0.0
2016-Apr-24 23:33N 28°08' W 015°25'0 0.0
2016-Apr-24 22:33N 28°08' W 015°25'0 0.0
2016-Apr-24 21:33N 28°08' W 015°25'0 0.0
2016-Apr-24 20:33N 28°08' W 015°25'0 0.0
2016-Apr-24 19:34N 28°08' W 015°25'0 0.0
2016-Apr-24 18:34N 28°08' W 015°25'0 0.0
2016-Apr-24 17:33N 28°08' W 015°25'0 0.0
2016-Apr-24 16:33N 28°08' W 015°25'0 0.0
2016-Apr-24 15:34N 28°08' W 015°25'0 0.0
2016-Apr-24 14:34N 28°08' W 015°25'0 0.0
2016-Apr-24 13:33N 28°08' W 015°25'0 0.0
2016-Apr-24 12:33N 28°08' W 015°25'0 0.0
2016-Apr-24 11:33N 28°08' W 015°25'0 0.0
2016-Apr-24 10:33N 28°08' W 015°25'0 0.0
2016-Apr-24 09:33N 28°08' W 015°25'0 0.0
2016-Apr-24 08:33N 28°08' W 015°25'0 0.0
2016-Apr-24 07:33N 28°08' W 015°25'0 0.0
2016-Apr-24 06:34N 28°08' W 015°25'0 0.0
2016-Apr-24 05:33N 28°08' W 015°25'0 0.0
2016-Apr-24 04:33N 28°08' W 015°25'0 0.0
2016-Apr-24 03:33N 28°08' W 015°25'0 0.0
2016-Apr-24 02:33N 28°08' W 015°25'0 0.0
2016-Apr-24 01:33N 28°08' W 015°25'0 0.0
2016-Apr-24 00:33N 28°08' W 015°25'0 0.0
2016-Apr-23 23:33N 28°08' W 015°25'0 0.0
2016-Apr-23 22:34N 28°08' W 015°25'0 0.0
2016-Apr-23 21:34N 28°08' W 015°25'0 0.0
2016-Apr-23 20:33N 28°08' W 015°25'0 0.0
2016-Apr-23 19:33N 28°08' W 015°25'0 0.0
2016-Apr-23 18:33N 28°08' W 015°25'0 0.0
2016-Apr-23 17:33N 28°08' W 015°25'0 0.0
2016-Apr-23 16:34N 28°08' W 015°25'1212.3
2016-Apr-23 15:33N 28°06' W 015°11'1616.2
2016-Apr-23 14:33N 28°04' W 014°53'1616.0
2016-Apr-23 13:33N 28°02' W 014°35'1616.0
2016-Apr-23 12:33N 28°03' W 014°17'14 1.7
2016-Apr-23 04:20N 28°09' W 014°03'1215.8
2016-Apr-23 03:33N 28°03' W 014°15'1615.3
2016-Apr-23 02:29N 28°02' W 014°33'1516.0
2016-Apr-23 01:34N 28°04' W 014°50'1615.8
2016-Apr-23 00:34N 28°05' W 015°08'1514.8
2016-Apr-22 23:33N 28°08' W 015°25'1 0.5
2016-Apr-22 22:27N 28°08' W 015°25'0 0.0
2016-Apr-22 21:27N 28°08' W 015°25'0 0.0
2016-Apr-22 20:27N 28°08' W 015°25'0 0.0
2016-Apr-22 19:30N 28°08' W 015°25'0 0.0
2016-Apr-22 18:27N 28°08' W 015°25'0 0.0
2016-Apr-22 17:33N 28°08' W 015°25'0 0.1
2016-Apr-22 16:33N 28°08' W 015°25'1413.9
2016-Apr-22 15:33N 28°06' W 015°09'1616.1
2016-Apr-22 14:33N 28°04' W 014°51'1615.9
2016-Apr-22 13:34N 28°02' W 014°33'1615.5
2016-Apr-22 12:33N 28°03' W 014°16'1716.1
2016-Apr-22 11:31N 28°11' W 013°59'1515.4
2016-Apr-22 10:33N 28°24' W 013°50'6 1.2
2016-Apr-22 05:24N 28°29' W 013°51'1112.3
2016-Apr-22 04:30N 28°18' W 013°52'1414.5
2016-Apr-22 03:33N 28°09' W 014°03'1615.6
2016-Apr-22 02:33N 28°02' W 014°19'1515.3
2016-Apr-22 01:33N 28°02' W 014°36'1615.8
2016-Apr-22 00:33N 28°04' W 014°54'1615.6
2016-Apr-21 23:33N 28°06' W 015°11'1212.1
2016-Apr-21 22:33N 28°08' W 015°25'0 0.0
2016-Apr-21 21:33N 28°08' W 015°25'0 0.0
2016-Apr-21 20:33N 28°08' W 015°25'0 0.0
2016-Apr-21 19:34N 28°08' W 015°25'0 0.0
2016-Apr-21 18:33N 28°08' W 015°25'0 0.0
2016-Apr-21 17:33N 28°08' W 015°25'1 0.6
2016-Apr-21 16:33N 28°08' W 015°25'1414.2
2016-Apr-21 15:33N 28°06' W 015°09'1615.8
2016-Apr-21 14:34N 28°04' W 014°51'1615.7
2016-Apr-21 13:34N 28°02' W 014°33'1615.5
2016-Apr-21 12:30N 28°04' W 014°15'33 8.3
2016-Apr-21 08:28N 28°30' W 013°51'29 5.9
2016-Apr-21 03:33N 28°06' W 014°10'2214.8
2016-Apr-21 02:03N 28°02' W 014°35'815.8
2016-Apr-21 01:34N 28°03' W 014°44'1515.4
2016-Apr-21 00:33N 28°05' W 015°01'2110.7
2016-Apr-20 22:33N 28°08' W 015°25'0 0.0
2016-Apr-20 21:29N 28°08' W 015°25'0 0.0
2016-Apr-20 20:32N 28°08' W 015°25'0 0.0
2016-Apr-20 19:32N 28°08' W 015°25'0 0.0
2016-Apr-20 18:32N 28°08' W 015°25'0 0.0
2016-Apr-20 17:32N 28°08' W 015°25'3 3.3
2016-Apr-20 16:34N 28°07' W 015°21'1615.5
2016-Apr-20 15:33N 28°05' W 015°04'1615.6
2016-Apr-20 14:33N 28°04' W 014°46'1615.3
2016-Apr-20 13:32N 28°02' W 014°29'1715.1
2016-Apr-20 12:25N 28°06' W 014°10'5 0.6
2016-Apr-20 03:33N 28°08' W 014°05'3015.0
2016-Apr-20 01:32N 28°02' W 014°39'1515.3
2016-Apr-20 00:33N 28°04' W 014°56'1515.3
2016-Apr-19 23:33N 28°06' W 015°13'1010.4
2016-Apr-19 22:33N 28°08' W 015°25'0 0.0
2016-Apr-19 21:33N 28°08' W 015°25'0 0.0
2016-Apr-19 20:33N 28°08' W 015°25'0 0.0
2016-Apr-19 19:33N 28°08' W 015°25'0 0.0
2016-Apr-19 18:33N 28°08' W 015°25'0 0.0
2016-Apr-19 17:33N 28°08' W 015°25'9 9.5
2016-Apr-19 16:33N 28°06' W 015°14'1514.6
2016-Apr-19 15:33N 28°04' W 014°58'1414.2
2016-Apr-19 14:34N 28°03' W 014°42'1414.2
2016-Apr-19 13:33N 28°01' W 014°26'1614.7
2016-Apr-19 12:29N 28°06' W 014°09'6 0.7
2016-Apr-19 04:12N 28°09' W 014°03'4014.9
2016-Apr-19 01:33N 28°03' W 014°48'1515.1
2016-Apr-19 00:33N 28°05' W 015°05'1515.5
2016-Apr-18 23:33N 28°06' W 015°22'3 3.1
2016-Apr-18 22:33N 28°08' W 015°25'  
Track history (hours):
 
Tides and Currents Weather Stations Pressure Air Temp Water Temp Dewpoint Dewpoint Depression Visibility Wind Speed Wind Dir Waves Ship Positions

Volcan De Tauce

Last reported at 2016-Apr-28 21:31 UTC. Time now 2016-Apr-28 21:51 UTC.
Position N 28°08' W 015°25'.

Length 120 m; draft 4.7 m.

Type: Passenger vessel. MMSI: 224761000.

Date/timePositionNaut miles runAvg speedWind from/ knotsBaromVisibWave heightAir tempDewpointWater temp
2016-Apr-28 21:31N 28°08' W 015°25'0 0.0
2016-Apr-28 20:31N 28°08' W 015°25'0 0.0
2016-Apr-28 19:31N 28°08' W 015°25'0 0.0
2016-Apr-28 18:31N 28°08' W 015°25'0 0.0
2016-Apr-28 17:31N 28°08' W 015°25'0 0.0
2016-Apr-28 16:33N 28°08' W 015°25'1313.4
2016-Apr-28 15:33N 28°06' W 015°10'1616.0
2016-Apr-28 14:33N 28°04' W 014°52'5914.8
2016-Apr-28 10:33N 28°25' W 013°49'5 2.4
2016-Apr-28 08:16N 28°30' W 013°51'46 7.4
2016-Apr-28 02:03N 28°02' W 014°33'1415.1
2016-Apr-28 01:06N 28°03' W 014°49'5 0.5
2016-Apr-27 14:08N 28°03' W 014°43'915.7
2016-Apr-27 13:34N 28°02' W 014°33'1615.8
2016-Apr-27 12:33N 28°03' W 014°15'1816.5
2016-Apr-27 11:29N 28°12' W 013°58'1715.4
2016-Apr-27 10:25N 28°27' W 013°50'3 0.8
2016-Apr-27 06:07N 28°30' W 013°51'1 1.1
2016-Apr-27 05:28N 28°29' W 013°51'2613.4
2016-Apr-27 03:33N 28°07' W 014°06'2914.5
2016-Apr-27 01:33N 28°02' W 014°39'1515.3
2016-Apr-27 00:33N 28°04' W 014°56'1515.3
2016-Apr-26 23:33N 28°06' W 015°13'1010.5
2016-Apr-26 22:33N 28°08' W 015°25'0 0.0
2016-Apr-26 21:33N 28°08' W 015°25'0 0.0
2016-Apr-26 20:33N 28°08' W 015°25'0 0.0
2016-Apr-26 19:33N 28°08' W 015°25'0 0.0
2016-Apr-26 18:33N 28°08' W 015°25'0 0.0
2016-Apr-26 17:30N 28°08' W 015°25'0 0.2
2016-Apr-26 16:33N 28°08' W 015°25'1413.8
2016-Apr-26 15:33N 28°06' W 015°09'1616.3
2016-Apr-26 14:33N 28°04' W 014°51'1615.9
2016-Apr-26 13:33N 28°02' W 014°33'1716.1
2016-Apr-26 12:30N 28°04' W 014°14'3215.3
2016-Apr-26 10:27N 28°27' W 013°50'17 2.8
2016-Apr-26 04:10N 28°11' W 013°58'1015.6
2016-Apr-26 03:33N 28°07' W 014°08'2914.4
2016-Apr-26 01:32N 28°03' W 014°40'1515.1
2016-Apr-26 00:33N 28°04' W 014°57'1515.1
2016-Apr-25 23:33N 28°06' W 015°14'10 9.9
2016-Apr-25 22:33N 28°08' W 015°25'0 0.0
2016-Apr-25 21:25N 28°08' W 015°25'0 0.0
2016-Apr-25 20:25N 28°08' W 015°25'0 0.0
2016-Apr-25 19:25N 28°08' W 015°25'0 0.0
2016-Apr-25 18:25N 28°08' W 015°25'0 0.0
2016-Apr-25 17:28N 28°08' W 015°25'0 0.0
2016-Apr-25 16:33N 28°08' W 015°25'0 0.0
2016-Apr-25 15:33N 28°08' W 015°25'0 0.0
2016-Apr-25 14:34N 28°08' W 015°25'0 0.0
2016-Apr-25 13:33N 28°08' W 015°25'0 0.0
2016-Apr-25 12:34N 28°08' W 015°25'0 0.0
2016-Apr-25 11:34N 28°08' W 015°25'0 0.0
2016-Apr-25 10:33N 28°08' W 015°25'0 0.0
2016-Apr-25 09:33N 28°08' W 015°25'0 0.0
2016-Apr-25 08:33N 28°08' W 015°25'0 0.0
2016-Apr-25 07:33N 28°08' W 015°25'0 0.0
2016-Apr-25 06:34N 28°08' W 015°25'0 0.0
2016-Apr-25 05:34N 28°08' W 015°25'0 0.0
2016-Apr-25 04:33N 28°08' W 015°25'0 0.0
2016-Apr-25 03:33N 28°08' W 015°25'0 0.0
2016-Apr-25 02:33N 28°08' W 015°25'0 0.0
2016-Apr-25 01:33N 28°08' W 015°25'0 0.0
2016-Apr-25 00:33N 28°08' W 015°25'0 0.0
2016-Apr-24 23:33N 28°08' W 015°25'0 0.0
2016-Apr-24 22:33N 28°08' W 015°25'0 0.0
2016-Apr-24 21:33N 28°08' W 015°25'0 0.0
2016-Apr-24 20:33N 28°08' W 015°25'0 0.0
2016-Apr-24 19:34N 28°08' W 015°25'0 0.0
2016-Apr-24 18:34N 28°08' W 015°25'0 0.0
2016-Apr-24 17:33N 28°08' W 015°25'0 0.0
2016-Apr-24 16:33N 28°08' W 015°25'0 0.0
2016-Apr-24 15:34N 28°08' W 015°25'0 0.0
2016-Apr-24 14:34N 28°08' W 015°25'0 0.0
2016-Apr-24 13:33N 28°08' W 015°25'0 0.0
2016-Apr-24 12:33N 28°08' W 015°25'0 0.0
2016-Apr-24 11:33N 28°08' W 015°25'0 0.0
2016-Apr-24 10:33N 28°08' W 015°25'0 0.0
2016-Apr-24 09:33N 28°08' W 015°25'0 0.0
2016-Apr-24 08:33N 28°08' W 015°25'0 0.0
2016-Apr-24 07:33N 28°08' W 015°25'0 0.0
2016-Apr-24 06:34N 28°08' W 015°25'0 0.0
2016-Apr-24 05:33N 28°08' W 015°25'0 0.0
2016-Apr-24 04:33N 28°08' W 015°25'0 0.0
2016-Apr-24 03:33N 28°08' W 015°25'0 0.0
2016-Apr-24 02:33N 28°08' W 015°25'0 0.0
2016-Apr-24 01:33N 28°08' W 015°25'0 0.0
2016-Apr-24 00:33N 28°08' W 015°25'0 0.0
2016-Apr-23 23:33N 28°08' W 015°25'0 0.0
2016-Apr-23 22:34N 28°08' W 015°25'0 0.0
2016-Apr-23 21:34N 28°08' W 015°25'0 0.0
2016-Apr-23 20:33N 28°08' W 015°25'0 0.0
2016-Apr-23 19:33N 28°08' W 015°25'0 0.0
2016-Apr-23 18:33N 28°08' W 015°25'0 0.0
2016-Apr-23 17:33N 28°08' W 015°25'0 0.0
2016-Apr-23 16:34N 28°08' W 015°25'1212.3
2016-Apr-23 15:33N 28°06' W 015°11'1616.2
2016-Apr-23 14:33N 28°04' W 014°53'1616.0
2016-Apr-23 13:33N 28°02' W 014°35'1616.0
2016-Apr-23 12:33N 28°03' W 014°17'14 1.7
2016-Apr-23 04:20N 28°09' W 014°03'1215.8
2016-Apr-23 03:33N 28°03' W 014°15'1615.3
2016-Apr-23 02:29N 28°02' W 014°33'1516.0
2016-Apr-23 01:34N 28°04' W 014°50'1615.8
2016-Apr-23 00:34N 28°05' W 015°08'1514.8
2016-Apr-22 23:33N 28°08' W 015°25'1 0.5
2016-Apr-22 22:27N 28°08' W 015°25'0 0.0
2016-Apr-22 21:27N 28°08' W 015°25'0 0.0
2016-Apr-22 20:27N 28°08' W 015°25'0 0.0
2016-Apr-22 19:30N 28°08' W 015°25'0 0.0
2016-Apr-22 18:27N 28°08' W 015°25'0 0.0
2016-Apr-22 17:33N 28°08' W 015°25'0 0.1
2016-Apr-22 16:33N 28°08' W 015°25'1413.9
2016-Apr-22 15:33N 28°06' W 015°09'1616.1
2016-Apr-22 14:33N 28°04' W 014°51'1615.9
2016-Apr-22 13:34N 28°02' W 014°33'1615.5
2016-Apr-22 12:33N 28°03' W 014°16'1716.1
2016-Apr-22 11:31N 28°11' W 013°59'1515.4
2016-Apr-22 10:33N 28°24' W 013°50'6 1.2
2016-Apr-22 05:24N 28°29' W 013°51'1112.3
2016-Apr-22 04:30N 28°18' W 013°52'1414.5
2016-Apr-22 03:33N 28°09' W 014°03'1615.6
2016-Apr-22 02:33N 28°02' W 014°19'1515.3
2016-Apr-22 01:33N 28°02' W 014°36'1615.8
2016-Apr-22 00:33N 28°04' W 014°54'1615.6
2016-Apr-21 23:33N 28°06' W 015°11'1212.1
2016-Apr-21 22:33N 28°08' W 015°25'0 0.0
2016-Apr-21 21:33N 28°08' W 015°25'0 0.0
2016-Apr-21 20:33N 28°08' W 015°25'0 0.0
2016-Apr-21 19:34N 28°08' W 015°25'0 0.0
2016-Apr-21 18:33N 28°08' W 015°25'0 0.0
2016-Apr-21 17:33N 28°08' W 015°25'1 0.6
2016-Apr-21 16:33N 28°08' W 015°25'1414.2
2016-Apr-21 15:33N 28°06' W 015°09'1615.8
2016-Apr-21 14:34N 28°04' W 014°51'1615.7
2016-Apr-21 13:34N 28°02' W 014°33'1615.5
2016-Apr-21 12:30N 28°04' W 014°15'33 8.3
2016-Apr-21 08:28N 28°30' W 013°51'29 5.9
2016-Apr-21 03:33N 28°06' W 014°10'2214.8
2016-Apr-21 02:03N 28°02' W 014°35'815.8
2016-Apr-21 01:34N 28°03' W 014°44'1515.4
2016-Apr-21 00:33N 28°05' W 015°01'2110.7
2016-Apr-20 22:33N 28°08' W 015°25'0 0.0
2016-Apr-20 21:29N 28°08' W 015°25'0 0.0
2016-Apr-20 20:32N 28°08' W 015°25'0 0.0
2016-Apr-20 19:32N 28°08' W 015°25'0 0.0
2016-Apr-20 18:32N 28°08' W 015°25'0 0.0
2016-Apr-20 17:32N 28°08' W 015°25'3 3.3
2016-Apr-20 16:34N 28°07' W 015°21'1615.5
2016-Apr-20 15:33N 28°05' W 015°04'1615.6
2016-Apr-20 14:33N 28°04' W 014°46'1615.3
2016-Apr-20 13:32N 28°02' W 014°29'1715.1
2016-Apr-20 12:25N 28°06' W 014°10'5 0.6
2016-Apr-20 03:33N 28°08' W 014°05'3015.0
2016-Apr-20 01:32N 28°02' W 014°39'1515.3
2016-Apr-20 00:33N 28°04' W 014°56'1515.3
2016-Apr-19 23:33N 28°06' W 015°13'1010.4
2016-Apr-19 22:33N 28°08' W 015°25'0 0.0
2016-Apr-19 21:33N 28°08' W 015°25'0 0.0
2016-Apr-19 20:33N 28°08' W 015°25'0 0.0
2016-Apr-19 19:33N 28°08' W 015°25'0 0.0
2016-Apr-19 18:33N 28°08' W 015°25'0 0.0
2016-Apr-19 17:33N 28°08' W 015°25'9 9.5
2016-Apr-19 16:33N 28°06' W 015°14'1514.6
2016-Apr-19 15:33N 28°04' W 014°58'1414.2
2016-Apr-19 14:34N 28°03' W 014°42'1414.2
2016-Apr-19 13:33N 28°01' W 014°26'1614.7
2016-Apr-19 12:29N 28°06' W 014°09'6 0.7
2016-Apr-19 04:12N 28°09' W 014°03'4014.9
2016-Apr-19 01:33N 28°03' W 014°48'1515.1
2016-Apr-19 00:33N 28°05' W 015°05'1515.5
2016-Apr-18 23:33N 28°06' W 015°22'3 3.1
2016-Apr-18 22:33N 28°08' W 015°25'  

Dump ship's entire track history